Terminal Aerodrome Forecast
Issued by NWS Cleveland, OH

Home | Current Version | Previous Version | Graphics & Text | Print | Product List | Glossary On
Versions: 1 2 3 4 5 6 7 8 9 10 11 12 13 14 15 16 17 18 19 20 21 22 23 24 25 26 27
000
FTUS41 KCLE 142100 AAA
TAFCLE
TAF AMD
KCLE 142119Z 1421/1524 29012G25KT P6SM SCT015 OVC035
      TEMPO 1421/1423 5SM -SHRA BKN015 OVC035
     FM150400 35015G25KT 3SM -SHRA BR BKN015 OVC025
     FM150900 34015G25KT 2SM -SN BR OVC006
     FM151400 33015G25KT 3SM -SHSN BR SCT008 OVC015=

USA.gov is the U.S. government's official web portal to all federal, state and local government web resources and services.